Medicine Hat Airport, Alberta

Past 24 Hour Conditions

Date / Time
(MDT)
Conditions Temp
(°F)
Humidity
(%)
Dew Point
(°F)
Wind
(mph)
Pressure
(inches)
Visibility
(miles)
25 October 2014
4:00 Clear 35   77 29 S 3 30.1 10
3:00 Mostly Cloudy 36 75 29 W 2 30.1 10
2:00 Mostly Cloudy 36 75 29 calm 30.1 10
1:00 Mostly Cloudy 37 72 29 SW 6 30.1 10
00:00 Partly Cloudy 40 66 30 SSW 7 30.1 10
24 October 2014
23:00 Mostly Cloudy 42 62 30 S 7 30.1 10
22:00 Mostly Cloudy 44 55 29 SSW 8 30.1 10
21:00 Mostly Cloudy 42 52 26 SSW 5 30.1 15
20:00 Mostly Cloudy 43 50 26 S 6 30.1 15
19:00 Mostly Cloudy 42 49 24 W 5 30.0 15
18:00 Mostly Cloudy 51 35 24 WSW 7 30.0 30
17:00 Mostly Cloudy 56 28 23 W 13 gust 20 30.0 30
16:00 Mostly Cloudy 58 24 21 WNW 17 gust 26 30.0 30
15:00 Mostly Cloudy 59   25 23 WNW 17 gust 28 29.9 30
14:00 Mostly Cloudy 59   26 24 W 20 gust 28 29.9 30
13:00 Partly Cloudy 59   25 23 W 26 gust 35 29.9 30
12:00 Partly Cloudy 57 29 25 W 26 gust 38 29.9 30
11:00 Partly Cloudy 54 35 27 WSW 23 gust 30 29.9 30
10:00 Mostly Cloudy 52 39 28 WSW 17 gust 28 29.9 30
9:00 Mostly Cloudy 48 48 29 WSW 17 29.9 30
8:00 Partly Cloudy 47 49 29 WSW 17 gust 25 29.9 30
7:00 Partly Cloudy 49 45 29 W 20 gust 27 29.8 15
6:00 Clear 49 50 31 WSW 23 gust 32 29.8 10
5:00 Clear 50 49 31 WSW 23 gust 29 29.8 10
4:00 Clear 48 56 33 SW 22 29.8 10
N/A Not available
↑ Highest temperature
↓ Lowest temperature

If you require additional historical weather information, please visit Climate Data Online.

Date modified: